Latest Weather Observations for West Wyalong

IDN60801

Issued at 1:35 am EDT Tuesday 25 November 2014 (issued every 30 minutes, with the page automatically refreshed every 10 minutes)

About weather observations | Map of weather stations | Latest weather observations for NSW | Other Formats
Station Details ID: 050017 Name: WEST WYALONG AIRPORT AWS Lat: -33.94 Lon: 147.20 Height: 257.0 m
Data from the previous 72 hours. | See also: Recent months for locations in New South Wales
Date/Time
EDT
Temp
°C
App
Temp
°C
Dew
Point
Rel
Hum
%
Delta-T
°C
Wind Press
QNH
hPa
Press
MSL
hPa
Rain
since 9 am
mm
Dir
 
Spd
km/h
Gust
km/h
Spd
kts
Gust
kts
25/01:30am 19.1 15.8 16.1 83 1.8 WSW 28 37 15 20 1013.0 1012.0 0.6
25/01:00am 19.4 16.2 16.2 82 1.9 WSW 28 41 15 22 1012.7 1011.8 0.6
25/12:30am 19.7 17.6 16.3 81 2.1 WSW 22 30 12 16 1012.7 1011.8 0.6
25/12:00am 20.0 17.8 16.0 78 2.4 WSW 22 32 12 17 1012.3 1011.4 0.6
 
Date/Time
EDT
Temp
°C
App
Temp
°C
Dew
Point
Rel
Hum
%
Delta-T
°C
Wind Press
QNH
hPa
Press
MSL
hPa
Rain
since 9 am
mm
Dir
 
Spd
km/h
Gust
km/h
Spd
kts
Gust
kts
24/11:30pm 20.5 17.1 15.9 75 2.8 WSW 28 37 15 20 1011.7 1010.8 0.6
24/11:00pm 19.7 18.7 16.7 83 1.8 WSW 17 22 9 12 1011.5 1010.6 0.6
24/10:30pm 19.5 19.5 17.1 86 1.5 W 13 20 7 11 1011.6 1010.7 0.6
24/10:00pm 19.6 19.1 16.8 84 1.7 WSW 15 24 8 13 1011.4 1010.5 0.4
24/09:30pm 20.3 17.7 15.9 76 2.7 WSW 24 32 13 17 1011.5 1010.6 0.2
24/09:01pm 20.8 14.4 15.8 73 3.0 WSW 44 63 24 34 1012.1 1011.2 0.2
24/09:00pm 20.8 13.9 15.6 72 3.1 WSW 46 63 25 34 1012.2 1011.3 0.2
24/08:42pm 21.3 12.3 15.6 70 3.4 WSW 57 76 31 41 1012.3 1011.4 0.2
24/08:40pm 21.3 11.2 15.6 70 3.4 WSW 63 76 34 41 1012.4 1011.5 0.2
24/08:32pm 24.7 18.7 16.4 60 5.1 W 43 69 23 37 1012.6 1011.7 0.2
24/08:30pm 24.8 25.1 17.0 62 4.9 NW 11 20 6 11 1010.9 1010.0 0.2
24/08:00pm 24.9 25.6 17.1 62 4.9 NNW 9 13 5 7 1009.8 1008.8 0.2
24/07:30pm 25.3 25.6 17.0 60 5.2 N 11 15 6 8 1009.3 1008.3 0.2
24/07:00pm 25.6 25.4 16.7 58 5.6 N 13 17 7 9 1008.7 1007.8 0.2
24/06:30pm 25.9 25.2 16.5 56 5.9 N 15 19 8 10 1008.1 1007.2 0.2
24/06:00pm 26.0 25.5 16.0 54 6.2 NNE 13 20 7 11 1007.6 1006.7 0.2
24/05:30pm 26.0 25.5 16.0 54 6.2 NNE 13 19 7 10 1008.0 1007.1 0.2
24/05:00pm 26.5 25.3 16.1 52 6.5 ENE 17 22 9 12 1008.0 1007.1 0.2
24/04:30pm 26.2 25.1 16.4 54 6.1 E 17 24 9 13 1009.2 1008.2 0.2
24/04:00pm 25.7 24.8 16.8 58 5.6 ESE 17 26 9 14 1010.2 1009.2 0.2
24/03:30pm 24.9 24.0 16.9 61 5.0 ESE 17 28 9 15 1011.0 1010.1 0.2
24/03:00pm 24.5 23.2 16.7 61 4.9 SSE 19 24 10 13 1011.8 1010.9 0.2
24/02:30pm 23.9 22.5 16.9 65 4.4 SSE 20 24 11 13 1011.9 1011.0 0.2
24/02:00pm 24.0 22.8 17.5 67 4.1 SSE 20 26 11 14 1012.3 1011.4 0.2
24/01:30pm 23.7 21.8 16.7 65 4.3 SSE 22 33 12 18 1011.9 1011.0 0.2
24/01:00pm 24.4 22.4 16.4 61 5.0 SSE 22 28 12 15 1012.3 1011.4 0.2
24/12:30pm 24.3 23.5 17.1 64 4.5 SSE 17 24 9 13 1011.8 1010.9 0.2
24/12:00pm 25.9 26.3 17.3 59 5.4 SSE 11 15 6 8 1013.0 1012.0 0.0
24/11:30am 25.8 25.4 16.1 55 6.0 S 13 19 7 10 1013.0 1012.0 0.0
24/11:00am 27.7 24.6 12.1 38 9.1 SE 20 26 11 14 1012.2 1011.3 0.0
24/10:30am 28.5 24.9 12.0 36 9.7 SE 22 30 12 16 1012.2 1011.3 0.0
24/10:00am 27.7 23.0 12.1 38 9.1 SSE 28 33 15 18 1012.6 1011.7 0.0
24/09:30am 27.7 24.2 12.1 38 9.1 SSE 22 30 12 16 1013.2 1012.2 0.0
24/09:00am 27.4 23.4 11.8 38 9.1 SE 24 33 13 18 1013.1 1012.1 0.0
24/08:30am 26.6 22.9 11.5 39 8.7 SE 22 30 12 16 1013.4 1012.4 0.0
24/08:00am 26.5 22.7 11.0 38 8.9 SE 22 32 12 17 1013.7 1012.7 0.0
24/07:30am 25.9 22.4 10.9 39 8.5 SSE 20 28 11 15 1013.5 1012.5 0.0
24/07:00am 25.5 22.2 10.9 40 8.3 S 19 26 10 14 1013.7 1012.7 0.0
24/06:30am 25.3 21.9 10.4 39 8.4 S 19 26 10 14 1013.8 1012.8 0.0
24/06:00am 25.7 23.3 9.9 37 8.8 S 13 20 7 11 1013.8 1012.8 0.0
24/05:30am 26.2 23.2 10.8 38 8.8 S 17 22 9 12 1013.5 1012.5 0.0
24/05:00am 25.6 24.1 10.6 39 8.5 SSE 9 15 5 8 1013.3 1012.3 0.0
24/04:30am 26.2 23.2 10.8 38 8.8 NE 17 22 9 12 1013.2 1012.2 0.0
24/04:00am 26.0 23.4 10.6 38 8.7 ENE 15 22 8 12 1013.0 1012.0 0.0
24/03:30am 26.4 24.7 9.7 35 9.3 E 9 13 5 7 1013.0 1012.0 0.0
24/03:00am 26.2 23.6 9.5 35 9.3 E 13 17 7 9 1012.3 1011.4 0.0
24/02:30am 26.7 25.0 10.0 35 9.4 SSE 9 15 5 8 1013.0 1012.0 0.0
24/02:00am 27.4 25.7 9.7 33 9.9 SSE 9 15 5 8 1012.8 1011.9 0.0
24/01:30am 28.1 24.4 9.4 31 10.5 S 19 28 10 15 1012.6 1011.7 0.0
24/01:00am 27.6 25.5 9.9 33 10.0 SSW 11 17 6 9 1013.9 1012.9 0.0
24/12:30am 28.9 25.0 8.6 28 11.3 W 19 22 10 12 1015.0 1014.1 0.0
24/12:00am 29.1 26.5 7.6 26 11.8 S 11 13 6 7 1013.2 1012.2 0.0
 
Date/Time
EDT
Temp
°C
App
Temp
°C
Dew
Point
Rel
Hum
%
Delta-T
°C
Wind Press
QNH
hPa
Press
MSL
hPa
Rain
since 9 am
mm
Dir
 
Spd
km/h
Gust
km/h
Spd
kts
Gust
kts
23/11:30pm 29.4 27.1 9.0 28 11.4 S 11 15 6 8 1012.8 1011.9 0.0
23/11:00pm 30.3 26.3 9.2 27 11.9 S 20 33 11 18 1012.6 1011.7 0.0
23/10:30pm 31.1 25.8 9.9 27 12.2 S 28 41 15 22 1012.0 1011.1 0.0
23/10:20pm 31.1 26.1 11.0 29 11.7 S 28 32 15 17 1011.7 1010.8 0.0
23/10:00pm 31.6 28.7 10.9 28 12.1 SSW 17 24 9 13 1013.8 1012.8 0.0
23/09:30pm 32.0 27.1 11.2 28 12.2 SSW 28 37 15 20 1013.0 1012.0 0.0
23/09:00pm 32.2 24.9 11.4 28 12.3 SW 41 52 22 28 1012.4 1011.5 0.0
23/08:31pm 33.4 28.1 11.3 26 13.1 WSW 30 48 16 26 1013.2 1012.2 0.0
23/08:30pm 33.6 28.2 10.9 25 13.4 WSW 30 43 16 23 1013.2 1012.2 0.0
23/08:20pm 34.2 29.9 10.7 24 13.8 WSW 24 37 13 20 1012.4 1011.5 0.0
23/08:00pm 34.3 30.6 10.2 23 14.1 SW 20 28 11 15 1010.4 1009.4 0.0
23/07:30pm 34.9 31.2 10.0 22 14.5 SW 20 28 11 15 1009.8 1008.8 0.0
23/07:00pm 35.6 31.1 9.9 21 15.1 WSW 24 33 13 18 1009.8 1008.8 0.0
23/06:30pm 36.6 31.1 9.2 19 15.9 WSW 28 39 15 21 1009.5 1008.5 0.0
23/06:00pm 38.4 33.2 9.0 17 17.2 WSW 26 35 14 19 1008.7 1007.8 0.0
23/05:30pm 37.1 30.8 8.8 18 16.4 WSW 32 39 17 21 1009.0 1008.0 0.0
23/05:00pm 38.1 30.0 8.8 17 17.1 W 41 61 22 33 1009.3 1008.3 0.0
23/04:30pm 38.3 31.4 9.0 17 17.1 W 35 54 19 29 1009.6 1008.6 0.0
23/04:00pm 38.6 30.8 8.3 16 17.6 W 39 57 21 31 1009.2 1008.2 0.0
23/03:52pm 38.7 30.7 7.4 15 17.9 WSW 39 57 21 31 1009.0 1008.0 0.0
23/03:30pm 40.2 33.0 7.6 14 18.8 W 35 50 19 27 1008.7 1007.8 0.0
23/03:05pm 42.1 35.4 8.0 13 19.9 WSW 33 52 18 28 1008.4 1007.5 0.0
23/03:00pm 41.9 34.3 8.9 14 19.6 WSW 39 52 21 28 1008.6 1007.7 0.0
23/02:30pm 42.3 35.8 8.1 13 20.0 WSW 32 39 17 21 1008.6 1007.7 0.0
23/02:15pm 41.8 35.7 6.6 12 20.1 NW 28 50 15 27 1008.3 1007.4 0.0
23/02:00pm 42.2 35.1 5.6 11 20.7 W 32 48 17 26 1008.6 1007.7 0.0
23/01:30pm 42.6 36.3 5.9 11 20.9 W 28 37 15 20 1008.7 1007.8 0.0
23/01:10pm 42.2 35.9 5.6 11 20.7 NW 28 46 15 25 1009.1 1008.1 0.0
23/01:00pm 41.6 34.4 5.2 11 20.4 WNW 32 43 17 23 1009.3 1008.3 0.0
23/12:30pm 41.5 34.4 6.4 12 20.0 WNW 33 48 18 26 1009.5 1008.5 0.0
23/12:08pm 40.9 33.7 5.9 12 19.8 NW 33 52 18 28 1009.4 1008.4 0.0
23/12:00pm 41.3 34.1 4.9 11 20.3 NW 32 44 17 24 1009.5 1008.5 0.0
23/11:30am 40.0 32.6 5.2 12 19.4 NW 33 52 18 28 1009.9 1008.9 0.0
23/11:12am 39.7 32.5 5.0 12 19.2 NW 32 54 17 29 1010.0 1009.0 0.0
23/11:00am 39.6 32.4 4.9 12 19.2 NNW 32 43 17 23 1010.0 1009.0 0.0
23/10:30am 37.7 31.8 5.6 14 17.8 NNW 26 41 14 22 1010.2 1009.2 0.0
23/10:00am 36.1 29.8 7.2 17 16.3 N 30 43 16 23 1010.2 1009.2 0.0
23/09:56am 35.6 29.3 5.9 16 16.3 N 28 43 15 23 1010.1 1009.1 0.0
23/09:30am 33.8 30.4 9.1 22 14.2 N 17 22 9 12 1010.1 1009.1 0.0
23/09:00am 30.0 27.0 10.5 30 11.2 NNE 17 24 9 13 1010.3 1009.3 1.0
23/08:30am 27.5 25.4 11.1 36 9.4 NE 13 17 7 9 1010.2 1009.2 1.0
23/08:00am 24.6 23.5 11.9 45 7.3 NE 9 15 5 8 1010.1 1009.1 1.0
23/07:30am 22.3 21.7 13.6 58 5.1 ESE 9 11 5 6 1010.0 1009.0 1.0
23/07:00am 21.9 23.1 13.8 60 4.8 CALM 0 0 0 0 1009.9 1008.9 1.0
23/06:30am 19.6 20.7 13.5 68 3.5 CALM 0 0 0 0 1009.6 1008.6 1.0
23/06:00am 19.1 18.0 11.9 63 4.0 NE 9 13 5 7 1009.3 1008.3 1.0
23/05:30am 19.1 18.0 11.9 63 4.0 NE 9 13 5 7 1009.0 1008.0 1.0
23/05:00am 18.9 17.9 12.4 66 3.7 ENE 9 11 5 6 1009.1 1008.1 1.0
23/04:30am 19.7 19.3 12.5 63 4.1 E 6 9 3 5 1009.5 1008.5 1.0
23/04:00am 18.7 18.6 14.0 74 2.7 ESE 7 13 4 7 1010.0 1009.0 1.0
23/03:30am 19.3 19.7 15.2 77 2.4 SSW 7 9 4 5 1010.6 1009.6 1.0
23/03:00am 20.2 20.3 13.9 67 3.7 E 6 9 3 5 1010.2 1009.2 1.0
23/02:30am 20.1 20.1 14.2 69 3.5 ENE 7 9 4 5 1010.7 1009.7 1.0
23/02:00am 19.5 19.7 14.7 74 2.8 S 7 11 4 6 1012.1 1011.2 1.0
23/01:42am 19.9 19.8 13.8 68 3.5 ESE 7 15 4 8 1012.8 1011.9 0.8
23/01:30am 20.5 15.4 13.0 62 4.3 WSW 32 50 17 27 1014.9 1014.0 0.4
23/01:21am 22.9 16.8 9.7 43 7.2 WSW 32 50 17 27 1015.3 1014.4 0.0
23/01:20am 23.7 17.8 8.9 39 8.0 WSW 30 44 16 24 1015.1 1014.2 0.0
23/01:14am 24.2 19.6 6.5 32 9.2 WSW 20 26 11 14 1013.1 1012.1 0.0
23/01:00am 24.0 21.1 6.3 32 9.2 ESE 11 15 6 8 1010.8 1009.8 0.0
23/12:30am 22.7 20.2 6.5 35 8.4 SE 9 11 5 6 1011.2 1010.3 0.0
23/12:00am 23.5 20.5 5.9 32 9.1 E 11 13 6 7 1011.3 1010.4 0.0
 
Date/Time
EDT
Temp
°C
App
Temp
°C
Dew
Point
Rel
Hum
%
Delta-T
°C
Wind Press
QNH
hPa
Press
MSL
hPa
Rain
since 9 am
mm
Dir
 
Spd
km/h
Gust
km/h
Spd
kts
Gust
kts
22/11:30pm 24.0 21.9 5.8 31 9.4 E 6 7 3 4 1011.7 1010.8 0.0
22/11:00pm 23.7 21.3 6.9 34 8.8 SW 9 11 5 6 1012.3 1011.4 0.0
22/10:30pm 25.6 23.3 5.8 28 10.3 SE 7 11 4 6 1012.1 1011.2 0.0
22/10:00pm 25.8 23.7 5.9 28 10.4 SSE 6 7 3 4 1011.8 1010.9 0.0
22/09:30pm 26.6 24.0 6.1 27 10.8 SE 9 11 5 6 1011.2 1010.3 0.0
22/09:00pm 27.1 24.9 6.0 26 11.1 ESE 7 11 4 6 1011.0 1010.1 0.0
22/08:30pm 28.6 26.3 5.5 23 12.2 SE 7 9 4 5 1010.7 1009.7 0.0
22/08:00pm 30.5 26.9 5.0 20 13.5 SSE 13 15 7 8 1010.7 1009.7 0.0
22/07:30pm 33.5 30.5 4.2 16 15.5 SSE 9 13 5 7 1010.3 1009.3 0.0
22/07:00pm 34.7 31.0 4.3 15 16.3 S 13 19 7 10 1010.1 1009.1 0.0
22/06:30pm 35.6 31.6 5.0 15 16.6 W 15 24 8 13 1009.8 1008.8 0.0
22/06:00pm 35.8 31.5 5.1 15 16.7 WSW 17 30 9 16 1009.7 1008.7 0.0
22/05:30pm 36.2 31.4 5.5 15 16.8 SW 20 22 11 12 1009.2 1008.2 0.0
22/05:00pm 34.6 29.5 4.2 15 16.2 WSW 20 26 11 14 1009.6 1008.6 0.0
22/04:30pm 35.5 29.2 3.9 14 16.8 WSW 26 33 14 18 1010.0 1009.0 0.0
22/04:00pm 35.2 29.8 4.7 15 16.5 W 22 35 12 19 1010.5 1009.5 0.0
22/03:42pm 35.1 28.4 3.6 14 16.7 W 28 46 15 25 1010.7 1009.7 0.0
22/03:30pm 35.7 29.1 4.1 14 16.9 W 28 41 15 22 1010.8 1009.8 0.0
22/03:18pm 36.3 29.8 4.6 14 17.2 W 28 48 15 26 1010.8 1009.8 0.0
22/03:00pm 35.4 30.4 4.8 15 16.6 WSW 20 28 11 15 1011.0 1010.1 0.0
22/02:30pm 36.7 32.0 5.9 15 17.0 W 20 26 11 14 1011.2 1010.3 0.0
22/02:00pm 35.3 30.0 4.8 15 16.5 WNW 22 37 12 20 1011.4 1010.5 0.0
22/01:30pm 35.5 31.3 5.8 16 16.3 W 17 28 9 15 1011.7 1010.8 0.0
22/01:00pm 34.2 31.1 5.7 17 15.5 W 11 17 6 9 1011.8 1010.9 0.0
22/12:30pm 33.5 29.0 5.9 18 15.0 NW 19 32 10 17 1012.1 1011.2 0.0
22/12:00pm 33.8 30.3 7.0 19 14.9 NNW 15 28 8 15 1012.3 1011.4 0.0
22/11:30am 31.7 28.8 8.0 23 13.2 WNW 13 22 7 12 1012.7 1011.8 0.0
22/11:00am 31.2 29.1 8.2 24 12.8 W 9 20 5 11 1013.1 1012.1 0.0
22/10:30am 30.3 27.9 8.7 26 12.1 NNE 11 17 6 9 1013.1 1012.1 0.0
22/10:00am 29.7 26.9 8.7 27 11.7 NE 13 19 7 10 1013.0 1012.0 0.0
22/09:30am 28.4 25.8 9.2 30 10.7 ENE 13 19 7 10 1013.4 1012.4 0.0
22/09:00am 27.1 23.8 9.5 33 9.8 ENE 17 20 9 11 1013.4 1012.4 0.0
22/08:30am 25.9 23.9 8.8 34 9.4 E 9 15 5 8 1013.3 1012.3 0.0
22/08:00am 24.4 22.6 9.6 39 8.2 ESE 9 11 5 6 1013.0 1012.0 0.0
22/07:30am 21.6 21.6 9.8 47 6.4 CALM 0 0 0 0 1012.8 1011.9 0.0
22/07:00am 18.6 18.0 10.4 59 4.5 WSW 4 7 2 4 1012.5 1011.6 0.0
22/06:30am 15.6 14.5 9.9 69 3.0 SW 6 7 3 4 1012.2 1011.3 0.0
22/06:00am 15.3 15.1 9.0 66 3.3 CALM 0 0 0 0 1011.8 1010.9 0.0
22/05:30am 14.4 14.1 8.8 69 2.9 CALM 0 0 0 0 1011.8 1010.9 0.0
22/05:00am 14.7 13.8 9.3 70 2.8 SSW 4 9 2 5 1012.0 1011.1 0.0
22/04:30am 15.3 15.0 8.8 65 3.4 CALM 0 0 0 0 1011.8 1010.9 0.0
22/04:00am 15.9 15.8 9.3 65 3.5 CALM 0 0 0 0 1011.5 1010.6 0.0
22/03:30am 16.4 16.3 9.3 63 3.7 CALM 0 0 0 0 1011.6 1010.7 0.0
22/03:00am 17.5 16.7 9.7 60 4.2 N 4 7 2 4 1011.5 1010.6 0.0
22/02:30am 16.7 16.1 8.9 60 4.1 WSW 2 6 1 3 1011.6 1010.7 0.0
22/02:00am 17.2 16.9 8.6 57 4.5 CALM 0 0 0 0 1011.6 1010.7 0.0

Other Formats:

Comma delimited format used in spreadsheet applications
http://www.bom.gov.au/fwo/IDN60801/IDN60801.95709.axf

JavaScript Object Notation format (JSON) in row-major order
http://www.bom.gov.au/fwo/IDN60801/IDN60801.95709.json